createdAt,value
2022-09-30T00:01:52.635Z,2.38
2022-09-30T00:04:22.275Z,2.55
2022-09-30T00:06:54.451Z,3.17
2022-09-30T00:09:25.279Z,2.40
2022-09-30T00:11:52.076Z,2.60
2022-09-30T00:14:25.701Z,2.17
2022-09-30T00:16:52.347Z,2.20
2022-09-30T00:19:24.939Z,2.10
2022-09-30T00:52:13.070Z,2.20
2022-09-30T00:54:42.058Z,3.00
2022-09-30T00:57:11.277Z,2.40
2022-09-30T00:59:47.027Z,2.90
2022-09-30T01:02:14.881Z,2.15
2022-09-30T01:04:43.343Z,2.38
2022-09-30T01:07:11.000Z,2.33
2022-09-30T01:09:40.854Z,2.33
2022-09-30T01:12:13.425Z,2.83
2022-09-30T01:14:44.871Z,2.95
2022-09-30T01:17:21.816Z,2.85
2022-09-30T01:19:51.425Z,3.03
2022-09-30T01:22:26.981Z,2.60
2022-09-30T01:25:09.531Z,2.85
2022-09-30T01:28:03.159Z,2.47
2022-09-30T01:31:04.174Z,2.65
2022-09-30T01:33:56.629Z,2.40
2022-09-30T01:36:41.025Z,2.70
2022-09-30T01:39:19.482Z,2.78
2022-09-30T01:42:13.061Z,2.40
2022-09-30T01:45:11.231Z,2.75
2022-09-30T01:47:37.917Z,2.15
2022-09-30T01:50:36.163Z,2.40
2022-09-30T01:53:42.351Z,2.78
2022-09-30T01:56:23.935Z,2.58
2022-09-30T01:58:56.859Z,2.63
2022-09-30T02:01:31.570Z,2.63
2022-09-30T02:04:04.910Z,2.80
2022-09-30T02:06:41.752Z,2.75
2022-09-30T02:09:22.232Z,2.25
2022-09-30T02:11:55.586Z,2.35
2022-09-30T02:14:28.437Z,2.38
2022-09-30T02:17:05.349Z,2.83
2022-09-30T02:19:37.315Z,2.22
2022-09-30T02:22:10.987Z,2.60
2022-09-30T02:24:38.754Z,2.20
2022-09-30T02:27:12.259Z,2.38
2022-09-30T02:29:49.035Z,2.80
2022-09-30T02:32:29.163Z,2.42
2022-09-30T02:35:19.917Z,2.83
2022-09-30T02:37:53.316Z,2.33
2022-09-30T02:40:38.652Z,2.95
2022-09-30T02:43:08.842Z,2.95
2022-09-30T02:46:03.473Z,3.40
2022-09-30T02:49:16.749Z,3.38
2022-09-30T02:52:03.315Z,3.10
2022-09-30T02:55:07.624Z,2.80
2022-09-30T02:57:41.925Z,3.38
2022-09-30T03:00:12.786Z,3.17
2022-09-30T03:02:40.949Z,3.38
2022-09-30T03:05:10.738Z,2.92
2022-09-30T03:07:39.665Z,3.40
2022-09-30T03:10:12.943Z,2.88
2022-09-30T03:12:51.534Z,3.53
2022-09-30T03:15:30.152Z,4.93
2022-09-30T03:18:32.414Z,5.40
2022-09-30T03:21:42.035Z,3.22
2022-09-30T03:24:46.312Z,2.80
2022-09-30T03:27:13.930Z,2.78
2022-09-30T03:30:09.100Z,2.95
2022-09-30T03:32:48.851Z,3.30
2022-09-30T03:35:28.141Z,3.35
2022-09-30T03:38:13.233Z,3.28
2022-09-30T03:40:58.125Z,3.38
2022-09-30T03:43:36.257Z,3.83
2022-09-30T03:46:08.029Z,3.30
2022-09-30T03:48:38.858Z,3.85
2022-09-30T03:51:08.153Z,3.92
2022-09-30T03:53:42.993Z,4.18
2022-09-30T03:56:17.059Z,5.30
2022-09-30T03:58:43.989Z,4.32
2022-09-30T04:01:20.579Z,3.67
2022-09-30T04:03:53.017Z,3.53
2022-09-30T04:06:22.631Z,3.78
2022-09-30T04:08:53.193Z,3.53
2022-09-30T04:11:24.089Z,3.97
2022-09-30T04:13:57.058Z,3.35
2022-09-30T04:16:25.316Z,3.92
2022-09-30T04:18:59.533Z,4.03
2022-09-30T04:21:28.419Z,3.90
2022-09-30T04:23:55.849Z,3.90
2022-09-30T04:26:33.603Z,4.53
2022-09-30T04:29:01.551Z,4.72
2022-09-30T04:31:31.275Z,3.63
2022-09-30T04:33:58.094Z,4.32
2022-09-30T04:36:26.134Z,5.18
2022-09-30T04:38:57.229Z,5.00
2022-09-30T04:41:24.347Z,5.43
2022-09-30T04:43:51.044Z,5.00
2022-09-30T04:46:20.020Z,4.70
2022-09-30T04:48:52.916Z,4.95
2022-09-30T04:51:22.127Z,4.88
2022-09-30T04:53:49.158Z,3.97
2022-09-30T04:56:16.320Z,4.60
2022-09-30T04:58:53.772Z,5.28
2022-09-30T05:01:20.983Z,5.10
2022-09-30T05:03:48.297Z,5.47
2022-09-30T05:06:15.240Z,5.32
2022-09-30T05:08:46.837Z,5.57
2022-09-30T05:11:18.750Z,5.93
2022-09-30T05:13:49.215Z,4.83
2022-09-30T05:16:17.398Z,4.78
2022-09-30T05:18:48.733Z,5.57
2022-09-30T05:21:23.174Z,4.95
2022-09-30T05:23:49.738Z,5.13
2022-09-30T05:26:17.243Z,4.68
2022-09-30T05:28:43.850Z,5.70
2022-09-30T05:31:11.417Z,5.82
2022-09-30T05:33:38.612Z,6.80
2022-09-30T05:36:11.208Z,7.28
2022-09-30T05:38:37.818Z,7.28
2022-09-30T05:41:10.624Z,5.63
2022-09-30T05:46:07.624Z,5.57
2022-09-30T05:48:36.529Z,6.88
2022-09-30T05:51:08.939Z,6.23
2022-09-30T05:53:41.472Z,5.88
2022-09-30T05:56:11.237Z,6.63
2022-09-30T05:58:40.609Z,7.30
2022-09-30T06:01:13.541Z,8.25
2022-09-30T06:03:47.221Z,7.88
2022-09-30T06:06:24.472Z,8.00
2022-09-30T06:08:51.595Z,7.72
2022-09-30T06:11:25.534Z,6.05
2022-09-30T06:14:00.294Z,6.80
2022-09-30T06:16:31.352Z,7.60
2022-09-30T06:18:59.214Z,7.25
2022-09-30T06:21:26.443Z,7.25
2022-09-30T06:23:53.954Z,7.32
2022-09-30T06:26:20.567Z,7.78
2022-09-30T06:28:47.431Z,8.02
2022-09-30T06:31:23.042Z,8.65
2022-09-30T06:33:52.485Z,8.75
2022-09-30T06:36:19.167Z,8.85
2022-09-30T06:38:53.636Z,9.10
2022-09-30T06:44:27.477Z,9.50
2022-09-30T06:46:56.475Z,9.63
2022-09-30T06:49:26.961Z,6.90
2022-09-30T06:51:55.348Z,8.38
2022-09-30T06:54:22.490Z,7.38
2022-09-30T06:56:53.148Z,6.75
2022-09-30T06:59:23.052Z,7.28
2022-09-30T07:01:57.526Z,7.40
2022-09-30T07:04:24.318Z,8.27
2022-09-30T07:06:51.025Z,10.73
2022-09-30T07:09:19.734Z,43.90
2022-09-30T07:11:47.480Z,13.40
2022-09-30T07:14:17.115Z,13.70
2022-09-30T07:16:45.958Z,9.55
2022-09-30T07:19:13.875Z,8.38
2022-09-30T07:21:42.800Z,10.18
2022-09-30T07:24:09.506Z,9.05
2022-09-30T07:26:36.406Z,8.68
2022-09-30T07:33:05.194Z,11.13
2022-09-30T07:35:52.428Z,10.82
2022-09-30T07:39:22.865Z,10.57
2022-09-30T07:42:05.024Z,10.45
2022-09-30T07:44:32.042Z,9.43
2022-09-30T07:47:00.845Z,9.05
2022-09-30T07:49:40.415Z,8.40
2022-09-30T07:52:14.422Z,8.50
2022-09-30T07:54:49.553Z,8.32
2022-09-30T07:57:18.459Z,9.20
2022-09-30T07:59:45.143Z,8.88
2022-09-30T08:02:17.659Z,8.48
2022-09-30T08:04:47.090Z,9.02
2022-09-30T08:07:19.406Z,8.38
2022-09-30T08:09:46.238Z,6.97
2022-09-30T08:12:12.986Z,7.45
2022-09-30T08:14:40.907Z,7.70
2022-09-30T08:17:07.687Z,7.95
2022-09-30T08:19:43.429Z,7.97
2022-09-30T08:22:12.387Z,7.70
2022-09-30T08:24:39.217Z,6.10
2022-09-30T08:27:06.672Z,8.18
2022-09-30T08:29:53.722Z,8.23
2022-09-30T08:32:21.407Z,8.68
2022-09-30T08:34:48.034Z,8.75
2022-09-30T08:37:19.668Z,10.05
2022-09-30T08:39:47.656Z,10.20
2022-09-30T08:42:50.538Z,9.38
2022-09-30T08:45:42.927Z,8.75
2022-09-30T08:48:24.814Z,9.63
2022-09-30T08:51:16.039Z,8.65
2022-09-30T08:53:46.881Z,9.93
2022-09-30T08:56:37.072Z,9.00
2022-09-30T08:59:29.676Z,13.77
2022-09-30T09:02:04.357Z,10.98
2022-09-30T09:07:21.548Z,9.85
2022-09-30T09:10:11.146Z,9.20
2022-09-30T09:13:15.392Z,9.50
2022-09-30T09:15:55.555Z,9.90
2022-09-30T09:18:27.414Z,10.27
2022-09-30T09:21:26.388Z,8.53
2022-09-30T09:24:29.707Z,7.82
2022-09-30T09:26:58.654Z,8.48
2022-09-30T09:29:49.992Z,13.18
2022-09-30T09:32:17.887Z,9.35
2022-09-30T09:34:50.934Z,10.85
2022-09-30T09:37:47.170Z,8.07
2022-09-30T09:40:34.967Z,8.82
2022-09-30T09:43:18.475Z,8.98
2022-09-30T09:46:18.616Z,8.57
2022-09-30T09:48:46.151Z,7.70
2022-09-30T09:51:31.574Z,7.15
2022-09-30T09:54:00.957Z,7.18
2022-09-30T09:56:32.507Z,6.63
2022-09-30T09:59:19.833Z,7.60
2022-09-30T10:01:53.302Z,7.30
2022-09-30T10:04:25.711Z,7.63
2022-09-30T10:06:59.663Z,7.47
2022-09-30T10:09:35.130Z,8.05
2022-09-30T10:12:09.651Z,8.50
2022-09-30T10:14:47.156Z,7.88
2022-09-30T10:17:37.668Z,7.82
2022-09-30T10:20:29.414Z,7.82
2022-09-30T10:23:18.877Z,8.40
2022-09-30T10:26:03.016Z,7.05
2022-09-30T10:28:45.820Z,7.10
2022-09-30T10:31:24.986Z,6.43
2022-09-30T10:34:14.552Z,6.63
2022-09-30T10:36:45.118Z,7.10
2022-09-30T10:39:32.272Z,6.38
2022-09-30T10:42:03.956Z,6.60
2022-09-30T10:44:43.949Z,6.73
2022-09-30T10:47:15.767Z,6.30
2022-09-30T10:50:08.774Z,5.85
2022-09-30T10:55:21.376Z,6.30
2022-09-30T10:57:56.218Z,5.60
2022-09-30T11:00:27.151Z,5.75
2022-09-30T11:03:32.152Z,5.47
2022-09-30T11:06:00.086Z,5.55
2022-09-30T11:08:50.743Z,5.20
2022-09-30T11:11:48.689Z,5.55
2022-09-30T11:14:39.193Z,5.07
2022-09-30T11:17:23.454Z,4.88
2022-09-30T11:20:14.068Z,4.53
2022-09-30T11:23:01.895Z,4.90
2022-09-30T11:25:56.510Z,4.25
2022-09-30T11:28:47.136Z,5.28
2022-09-30T11:31:30.414Z,4.43
2022-09-30T11:34:05.171Z,4.15
2022-09-30T11:36:50.432Z,4.47
2022-09-30T11:39:36.046Z,3.63
2022-09-30T11:42:17.740Z,4.10
2022-09-30T11:45:01.503Z,3.90
2022-09-30T11:47:46.008Z,3.85
2022-09-30T11:50:49.499Z,3.30
2022-09-30T11:53:38.920Z,3.83
2022-09-30T11:56:27.630Z,3.55
2022-09-30T11:58:59.202Z,3.22
2022-09-30T12:01:40.683Z,3.30
2022-09-30T12:04:36.258Z,4.50
2022-09-30T12:07:13.506Z,3.78
2022-09-30T12:09:50.898Z,3.90
2022-09-30T12:12:22.126Z,3.20
2022-09-30T12:15:00.410Z,5.93
2022-09-30T12:17:32.775Z,4.18
2022-09-30T12:20:19.850Z,3.33
2022-09-30T12:22:47.203Z,3.78
2022-09-30T12:25:22.994Z,3.92
2022-09-30T12:28:32.358Z,3.72
2022-09-30T12:31:27.478Z,3.72
2022-09-30T12:34:31.741Z,3.67
2022-09-30T12:37:19.985Z,2.78
2022-09-30T12:40:10.558Z,3.75
2022-09-30T12:43:09.902Z,4.82
2022-09-30T12:46:03.910Z,3.75
2022-09-30T12:48:46.059Z,3.08
2022-09-30T12:51:32.905Z,3.72
2022-09-30T12:54:12.819Z,3.42
2022-09-30T12:56:44.222Z,3.00
2022-09-30T12:59:12.564Z,2.92
2022-09-30T13:01:41.548Z,3.00
2022-09-30T13:04:08.113Z,2.58
2022-09-30T13:06:46.332Z,3.97
2022-09-30T13:09:30.095Z,4.32
2022-09-30T13:11:57.196Z,3.47
2022-09-30T13:38:40.133Z,3.05
2022-09-30T13:41:24.187Z,2.03
2022-09-30T13:44:01.755Z,2.10
2022-09-30T13:46:42.834Z,1.73
2022-09-30T13:49:24.958Z,2.10
2022-09-30T13:51:54.173Z,2.50
2022-09-30T13:54:30.373Z,2.33
2022-09-30T13:56:58.992Z,2.38
2022-09-30T13:59:49.037Z,1.70
2022-09-30T14:02:41.144Z,1.90
2022-09-30T14:05:34.424Z,2.20
2022-09-30T14:08:42.493Z,2.60
2022-09-30T14:15:02.740Z,1.95
2022-09-30T14:17:58.008Z,2.30
2022-09-30T14:20:47.621Z,2.47
2022-09-30T14:23:16.394Z,2.20
2022-09-30T14:26:06.515Z,1.80
2022-09-30T14:32:19.992Z,2.15
2022-09-30T14:34:51.395Z,1.90
2022-09-30T14:37:32.051Z,2.42
2022-09-30T14:40:02.111Z,2.53
2022-09-30T14:42:32.354Z,2.95
2022-09-30T14:45:03.754Z,1.90
2022-09-30T14:47:37.974Z,2.03
2022-09-30T14:50:16.709Z,1.70
2022-09-30T14:52:48.159Z,2.15
2022-09-30T14:55:41.211Z,1.70
2022-09-30T14:58:33.232Z,1.50
2022-09-30T15:01:02.943Z,1.92
2022-09-30T15:03:34.662Z,2.33
2022-09-30T15:06:05.945Z,1.63
2022-09-30T15:09:03.143Z,1.42
2022-09-30T15:11:33.086Z,1.98
2022-09-30T15:14:23.908Z,2.28
2022-09-30T15:16:56.523Z,1.80
2022-09-30T15:19:26.350Z,1.90
2022-09-30T15:22:01.685Z,1.75
2022-09-30T15:24:32.557Z,1.88
2022-09-30T15:27:03.226Z,1.75
2022-09-30T15:29:33.538Z,1.80
2022-09-30T15:32:14.507Z,1.95
2022-09-30T15:34:45.275Z,2.35
2022-09-30T15:37:23.023Z,1.90
2022-09-30T15:40:12.021Z,1.85
2022-09-30T15:43:02.087Z,2.25
2022-09-30T15:45:42.596Z,2.50
2022-09-30T15:48:25.863Z,2.25
2022-09-30T15:51:00.587Z,2.00
2022-09-30T15:53:30.275Z,2.35
2022-09-30T15:56:15.241Z,2.20
2022-09-30T15:59:15.175Z,2.60
2022-09-30T16:01:46.206Z,2.67
2022-09-30T16:04:18.152Z,2.15
2022-09-30T16:06:55.493Z,2.20
2022-09-30T16:09:34.317Z,2.20
2022-09-30T16:12:17.187Z,2.40
2022-09-30T16:14:55.361Z,2.10
2022-09-30T16:17:27.749Z,1.80
2022-09-30T16:19:59.961Z,1.80
2022-09-30T16:22:45.463Z,1.40
2022-09-30T16:25:29.233Z,1.55
2022-09-30T16:28:13.440Z,1.77
2022-09-30T16:30:51.828Z,1.70
2022-09-30T16:33:23.376Z,1.70
2022-09-30T16:35:50.005Z,1.70
2022-09-30T16:38:17.936Z,1.40
2022-09-30T16:40:47.138Z,5.10
2022-09-30T16:43:16.374Z,5.00
2022-09-30T16:45:43.079Z,4.35
2022-09-30T16:48:21.227Z,4.88
2022-09-30T16:51:04.191Z,5.57
2022-09-30T16:53:31.194Z,4.13
2022-09-30T16:55:59.116Z,7.93
2022-09-30T16:58:26.035Z,8.45
2022-09-30T17:01:17.996Z,3.42
2022-09-30T17:03:45.790Z,2.10
2022-09-30T17:06:14.412Z,4.32
2022-09-30T17:08:44.617Z,4.40
2022-09-30T17:11:11.322Z,3.60
2022-09-30T17:13:38.076Z,3.90
2022-09-30T17:16:04.896Z,2.70
2022-09-30T17:18:59.433Z,2.30
2022-09-30T17:21:27.051Z,2.75
2022-09-30T17:23:55.070Z,4.55
2022-09-30T17:26:25.298Z,4.00
2022-09-30T17:28:53.500Z,3.28
2022-09-30T17:31:20.486Z,2.95
2022-09-30T17:33:47.310Z,3.88
2022-09-30T17:36:14.533Z,5.00
2022-09-30T17:38:41.326Z,4.20
2022-09-30T17:41:37.542Z,5.35
2022-09-30T17:44:12.538Z,4.78
2022-09-30T17:46:42.338Z,5.22
2022-09-30T17:49:12.206Z,4.45
2022-09-30T17:51:39.180Z,4.03
2022-09-30T17:54:06.620Z,3.15
2022-09-30T17:56:37.078Z,2.97
2022-09-30T17:59:06.277Z,2.55
2022-09-30T18:01:33.236Z,3.30
2022-09-30T18:04:11.492Z,3.00
2022-09-30T18:06:40.492Z,3.03
2022-09-30T18:09:07.178Z,3.50
2022-09-30T18:11:42.782Z,3.42
2022-09-30T18:14:12.046Z,3.75
2022-09-30T18:16:38.680Z,9.38
2022-09-30T18:19:11.647Z,6.68
2022-09-30T18:21:42.454Z,5.57
2022-09-30T18:24:09.928Z,6.70
2022-09-30T18:26:36.511Z,5.53
2022-09-30T18:29:06.971Z,5.55
2022-09-30T18:31:36.082Z,5.63
2022-09-30T18:34:04.384Z,5.25
2022-09-30T18:36:36.830Z,5.20
2022-09-30T18:39:03.615Z,5.82
2022-09-30T18:41:32.579Z,4.78
2022-09-30T18:44:03.218Z,10.05
2022-09-30T18:46:37.196Z,11.07
2022-09-30T18:49:12.820Z,13.73
2022-09-30T18:51:39.730Z,14.87
2022-09-30T18:54:12.507Z,13.50
2022-09-30T18:56:39.290Z,12.38
2022-09-30T18:59:13.523Z,15.00
2022-09-30T19:02:05.084Z,13.63
2022-09-30T19:04:31.773Z,14.70
2022-09-30T19:06:58.444Z,12.68
2022-09-30T19:09:27.647Z,11.48
2022-09-30T19:11:54.893Z,9.95
2022-09-30T19:14:22.968Z,12.23
2022-09-30T19:16:51.100Z,6.57
2022-09-30T19:19:24.576Z,7.00
2022-09-30T19:21:55.569Z,4.95
2022-09-30T19:24:27.245Z,6.85
2022-09-30T19:26:56.519Z,6.00
2022-09-30T19:29:25.095Z,4.70
2022-09-30T19:31:53.714Z,4.20
2022-09-30T19:34:30.422Z,4.10
2022-09-30T19:37:05.024Z,4.03
2022-09-30T19:39:44.589Z,4.10
2022-09-30T19:42:19.507Z,4.28
2022-09-30T19:44:51.161Z,5.15
2022-09-30T19:47:18.154Z,4.50
2022-09-30T19:49:48.701Z,5.05
2022-09-30T19:52:22.167Z,5.25
2022-09-30T19:54:54.121Z,6.72
2022-09-30T19:57:23.239Z,9.65
2022-09-30T19:59:50.983Z,9.70
2022-09-30T20:02:21.463Z,9.77
2022-09-30T20:04:52.143Z,8.27
2022-09-30T20:07:44.354Z,6.05
2022-09-30T20:10:12.303Z,13.90
2022-09-30T20:12:39.116Z,8.05
2022-09-30T20:15:24.951Z,6.50
2022-09-30T20:17:54.132Z,4.85
2022-09-30T20:20:46.572Z,5.60
2022-09-30T20:23:13.973Z,5.72
2022-09-30T20:25:43.948Z,6.65
2022-09-30T20:28:13.370Z,6.88
2022-09-30T20:30:47.189Z,6.40
2022-09-30T20:33:26.240Z,5.80
2022-09-30T20:35:54.108Z,6.70
2022-09-30T20:38:27.599Z,5.55
2022-09-30T20:40:58.707Z,7.50
2022-09-30T20:43:30.408Z,6.28
2022-09-30T20:46:00.587Z,7.28
2022-09-30T20:48:34.137Z,7.47
2022-09-30T20:51:16.995Z,7.65
2022-09-30T20:53:49.145Z,9.63
2022-09-30T20:56:16.186Z,7.93
2022-09-30T21:01:43.883Z,6.53
2022-09-30T21:04:10.639Z,5.57
2022-09-30T21:06:37.211Z,5.40
2022-09-30T21:09:08.705Z,5.10
2022-09-30T21:11:40.298Z,5.03
2022-09-30T21:14:07.159Z,5.40
2022-09-30T21:16:33.937Z,4.63
2022-09-30T21:19:00.731Z,6.03
2022-09-30T21:21:29.891Z,7.95
2022-09-30T21:23:59.979Z,7.30
2022-09-30T21:26:27.410Z,5.95
2022-09-30T21:28:54.245Z,5.85
2022-09-30T21:31:24.092Z,5.65
2022-09-30T21:33:52.634Z,4.72
2022-09-30T21:36:22.398Z,4.43
2022-09-30T21:38:51.680Z,4.97
2022-09-30T21:44:34.718Z,5.25
2022-09-30T21:47:02.681Z,4.50
2022-09-30T21:49:29.357Z,4.88
2022-09-30T21:51:56.716Z,4.55
2022-09-30T21:54:28.123Z,4.13
2022-09-30T21:56:54.785Z,4.53
2022-09-30T21:59:24.663Z,4.07
2022-09-30T22:01:53.514Z,4.20
2022-09-30T22:04:23.366Z,4.75
2022-09-30T22:06:51.717Z,4.20
2022-09-30T22:09:18.273Z,4.40
2022-09-30T22:12:09.617Z,4.38
2022-09-30T22:14:38.751Z,4.18
2022-09-30T22:17:09.040Z,4.22
2022-09-30T22:19:39.937Z,4.88
2022-09-30T22:22:08.436Z,4.20
2022-09-30T22:24:38.184Z,4.78
2022-09-30T22:27:07.665Z,4.40
2022-09-30T22:29:34.780Z,4.25
2022-09-30T22:32:04.020Z,5.05
2022-09-30T22:35:01.170Z,4.22
2022-09-30T22:37:49.570Z,4.35
2022-09-30T22:40:16.164Z,4.47
2022-09-30T22:42:45.500Z,4.82
2022-09-30T22:45:12.221Z,4.18
2022-09-30T22:47:42.826Z,4.13
2022-09-30T22:50:09.644Z,3.90
2022-09-30T22:52:36.203Z,4.68
2022-09-30T22:55:07.916Z,4.10
2022-09-30T22:57:34.643Z,3.75
2022-09-30T23:00:05.544Z,3.85
2022-09-30T23:02:32.256Z,4.20
2022-09-30T23:05:00.922Z,3.70
2022-09-30T23:07:28.763Z,4.13
2022-09-30T23:09:55.638Z,3.78
2022-09-30T23:12:22.950Z,3.80
2022-09-30T23:14:50.382Z,3.58
2022-09-30T23:17:20.827Z,3.97
2022-09-30T23:19:52.539Z,4.18
2022-09-30T23:22:19.241Z,3.80
2022-09-30T23:24:46.045Z,3.55
2022-09-30T23:27:19.385Z,3.95
2022-09-30T23:29:45.938Z,3.60
2022-09-30T23:32:12.722Z,3.55
2022-09-30T23:34:39.817Z,4.10
2022-09-30T23:37:06.353Z,3.63
2022-09-30T23:39:43.851Z,3.20
2022-09-30T23:42:10.491Z,3.10
2022-09-30T23:44:37.088Z,3.60
2022-09-30T23:47:20.671Z,3.70
2022-09-30T23:49:52.119Z,3.65
2022-09-30T23:58:11.154Z,3.42
